Time;durP1;ratioP1;P1;durP2;ratioP2;P2;SDS_P1;SDS_P2;PMS_P1;PMS_P2;Temp;Humidity;BMP_temperature;BMP_pressure;BME280_temperature;BME280_humidity;BME280_pressure;Samples;Min_cycle;Max_cycle;Signal;HPM_P1;HPM_P2
2024/03/05 00:00:57;;;;;;;75.20;39.53;;;;;;;;;;5093726;28;20067;-59
2024/03/05 00:03:23;;;;;;;71.85;38.95;;;;;;;;;;5094109;28;20059;-58
2024/03/05 00:05:50;;;;;;;72.70;37.20;;;;;;;;;;5094360;28;20051;-58
2024/03/05 00:08:17;;;;;;;79.93;41.63;;;;;;;;;;5094468;28;20056;-58
2024/03/05 00:10:46;;;;;;;79.30;41.08;;;;;;;;;;5094490;28;20480;-59
2024/03/05 00:13:13;;;;;;;78.28;42.60;;;;;;;;;;5094138;28;20048;-59
2024/03/05 00:15:40;;;;;;;74.32;39.85;;;;;;;;;;5092785;28;20055;-58
2024/03/05 00:18:07;;;;;;;81.68;43.22;;;;;;;;;;5093823;28;20056;-58
2024/03/05 00:20:34;;;;;;;83.28;44.95;;;;;;;;;;5093315;28;20078;-58
2024/03/05 00:23:01;;;;;;;78.63;41.15;;;;;;;;;;5093641;28;20509;-59
2024/03/05 00:25:27;;;;;;;73.75;41.63;;;;;;;;;;5093557;28;20051;-58
2024/03/05 00:27:55;;;;;;;74.57;40.47;;;;;;;;;;5093531;28;20414;-58
2024/03/05 00:30:22;;;;;;;81.20;42.67;;;;;;;;;;5093015;28;20059;-58
2024/03/05 00:32:49;;;;;;;79.40;43.40;;;;;;;;;;5093324;28;20055;-57
2024/03/05 00:35:16;;;;;;;83.47;43.80;;;;;;;;;;5093569;28;20056;-58
2024/03/05 00:37:43;;;;;;;79.35;43.33;;;;;;;;;;5093997;28;20052;-59
2024/03/05 00:40:10;;;;;;;81.20;43.38;;;;;;;;;;5094027;28;20048;-58
2024/03/05 00:42:38;;;;;;;79.20;42.30;;;;;;;;;;5093401;28;20405;-58
2024/03/05 00:45:08;;;;;;;78.35;42.10;;;;;;;;;;5093045;28;20048;-59
2024/03/05 00:47:34;;;;;;;85.90;44.70;;;;;;;;;;5092997;28;20052;-58
2024/03/05 00:50:03;;;;;;;82.72;44.60;;;;;;;;;;5093579;28;20059;-58
2024/03/05 00:52:30;;;;;;;82.03;43.85;;;;;;;;;;5093406;28;20055;-59
2024/03/05 00:54:57;;;;;;;84.05;43.63;;;;;;;;;;5093580;28;20197;-59
2024/03/05 00:57:24;;;;;;;98.85;47.70;;;;;;;;;;5093164;28;20513;-59
2024/03/05 00:59:51;;;;;;;80.80;43.85;;;;;;;;;;5092844;28;20044;-59
2024/03/05 01:02:19;;;;;;;82.63;44.20;;;;;;;;;;5093281;28;20508;-59
2024/03/05 01:04:50;;;;;;;85.05;43.80;;;;;;;;;;5092963;28;20055;-59
2024/03/05 01:07:17;;;;;;;80.55;42.40;;;;;;;;;;5093104;28;20055;-59
2024/03/05 01:09:44;;;;;;;77.82;43.22;;;;;;;;;;5093306;28;20052;-57
2024/03/05 01:12:11;;;;;;;80.05;41.88;;;;;;;;;;5092999;28;20052;-58
2024/03/05 01:14:38;;;;;;;84.95;44.75;;;;;;;;;;5092573;28;20047;-58
2024/03/05 01:17:08;;;;;;;85.72;43.63;;;;;;;;;;5091431;28;20048;-58
2024/03/05 01:19:39;;;;;;;83.50;42.97;;;;;;;;;;5092546;28;20052;-59
2024/03/05 01:22:06;;;;;;;88.78;44.92;;;;;;;;;;5092888;28;20055;-60
2024/03/05 01:24:36;;;;;;;89.85;46.60;;;;;;;;;;5092772;28;20059;-60
2024/03/05 01:27:04;;;;;;;;;;;;;;;;;;5093249;28;20060;-58
2024/03/05 01:29:32;;;;;;;77.30;40.72;;;;;;;;;;5092263;28;19931;-58
2024/03/05 01:31:59;;;;;;;73.70;40.65;;;;;;;;;;5092543;28;20412;-58
2024/03/05 01:34:26;;;;;;;71.40;40.70;;;;;;;;;;5092779;28;20071;-58
2024/03/05 01:36:56;;;;;;;69.28;38.80;;;;;;;;;;5092629;28;20062;-59
2024/03/05 01:39:24;;;;;;;72.32;41.20;;;;;;;;;;5092836;28;20063;-59
2024/03/05 01:41:52;;;;;;;75.70;41.85;;;;;;;;;;5092507;28;20052;-59
2024/03/05 01:44:19;;;;;;;67.65;39.85;;;;;;;;;;5092623;28;20074;-59
2024/03/05 01:46:46;;;;;;;70.60;39.40;;;;;;;;;;5092082;28;20052;-58
2024/03/05 01:49:13;;;;;;;68.82;40.95;;;;;;;;;;5092577;28;20056;-59
2024/03/05 01:51:40;;;;;;;71.07;41.70;;;;;;;;;;5092552;28;20056;-58
2024/03/05 01:54:12;;;;;;;75.55;42.78;;;;;;;;;;5090782;28;20056;-57
2024/03/05 01:56:39;;;;;;;77.57;43.67;;;;;;;;;;5091806;28;20488;-59
2024/03/05 01:59:14;;;;;;;75.82;42.60;;;;;;;;;;5092146;28;20058;-58
2024/03/05 02:01:41;;;;;;;79.38;41.83;;;;;;;;;;5091610;28;20492;-58
2024/03/05 02:04:09;;;;;;;78.65;43.88;;;;;;;;;;5092478;28;20401;-59
2024/03/05 02:06:36;;;;;;;81.90;44.50;;;;;;;;;;5092553;28;20059;-58
2024/03/05 02:09:06;;;;;;;75.13;41.38;;;;;;;;;;5092671;28;20055;-58
2024/03/05 02:11:33;;;;;;;;;;;;;;;;;;5092183;28;20052;-58
2024/03/05 02:14:02;;;;;;;69.72;37.97;;;;;;;;;;5092224;28;19920;-58
2024/03/05 02:16:29;;;;;;;64.32;37.20;;;;;;;;;;5091946;28;20531;-58
2024/03/05 02:18:56;;;;;;;71.22;38.20;;;;;;;;;;5091633;28;20402;-59
2024/03/05 02:21:25;;;;;;;66.78;38.85;;;;;;;;;;5092447;28;20481;-59
2024/03/05 02:23:51;;;;;;;72.32;40.78;;;;;;;;;;5092249;28;20052;-58
2024/03/05 02:26:19;;;;;;;66.82;38.00;;;;;;;;;;5092625;28;20070;-57
2024/03/05 02:28:46;;;;;;;70.15;39.17;;;;;;;;;;5092392;28;20413;-58
2024/03/05 02:31:16;;;;;;;67.75;37.65;;;;;;;;;;5091238;28;20055;-58
2024/03/05 02:33:43;;;;;;;72.80;39.13;;;;;;;;;;5091981;28;20055;-58
2024/03/05 02:36:10;;;;;;;77.68;41.95;;;;;;;;;;5092305;28;20048;-57
2024/03/05 02:38:38;;;;;;;74.50;39.85;;;;;;;;;;5091710;28;20485;-57
2024/03/05 02:41:05;;;;;;;84.18;41.92;;;;;;;;;;5092328;28;20496;-58
2024/03/05 02:43:33;;;;;;;75.15;39.03;;;;;;;;;;5094262;28;20067;-59
2024/03/05 02:46:00;;;;;;;71.45;39.28;;;;;;;;;;5095329;28;20051;-59
2024/03/05 02:48:27;;;;;;;73.00;37.85;;;;;;;;;;5095648;28;20413;-60
2024/03/05 02:50:57;;;;;;;71.15;38.33;;;;;;;;;;5096046;28;20405;-59
2024/03/05 02:53:24;;;;;;;71.28;39.25;;;;;;;;;;5095807;28;20055;-58
2024/03/05 02:55:52;;;;;;;69.93;37.55;;;;;;;;;;5095922;28;20056;-59
2024/03/05 02:58:20;;;;;;;71.22;36.63;;;;;;;;;;5095639;28;20063;-58
2024/03/05 03:00:47;;;;;;;68.03;37.47;;;;;;;;;;5095036;28;20401;-58
2024/03/05 03:03:14;;;;;;;80.05;39.42;;;;;;;;;;5094719;28;20059;-59
2024/03/05 03:05:40;;;;;;;71.95;37.63;;;;;;;;;;5095782;28;20058;-58
2024/03/05 03:08:07;;;;;;;69.53;37.33;;;;;;;;;;5095259;28;20052;-58
2024/03/05 03:10:34;;;;;;;72.22;37.25;;;;;;;;;;5095578;28;20052;-58
2024/03/05 03:13:02;;;;;;;66.82;37.05;;;;;;;;;;5095586;28;20055;-58
2024/03/05 03:15:30;;;;;;;71.07;38.55;;;;;;;;;;5078795;28;20056;-58
2024/03/05 03:17:57;;;;;;;70.22;38.53;;;;;;;;;;5094641;28;20052;-59
2024/03/05 03:20:24;;;;;;;68.78;38.05;;;;;;;;;;5095526;28;20052;-58
2024/03/05 03:22:51;;;;;;;68.03;38.10;;;;;;;;;;5095450;28;20048;-59
2024/03/05 03:25:18;;;;;;;71.97;39.95;;;;;;;;;;5095259;28;20048;-58
2024/03/05 03:27:45;;;;;;;70.78;41.00;;;;;;;;;;5094743;28;20114;-58
2024/03/05 03:30:17;;;;;;;71.50;39.90;;;;;;;;;;5094757;28;20063;-58
2024/03/05 03:32:44;;;;;;;70.80;38.88;;;;;;;;;;5094691;28;20059;-58
2024/03/05 03:35:13;;;;;;;71.78;40.42;;;;;;;;;;5095178;28;20055;-58
2024/03/05 03:37:40;;;;;;;74.25;40.08;;;;;;;;;;5095147;28;20055;-58
2024/03/05 03:40:17;;;;;;;67.78;39.40;;;;;;;;;;5095089;28;20047;-58
2024/03/05 03:42:44;;;;;;;63.38;37.72;;;;;;;;;;5094716;28;20412;-58
2024/03/05 03:45:13;;;;;;;69.10;39.22;;;;;;;;;;5094623;28;20052;-58
2024/03/05 03:47:40;;;;;;;68.22;38.40;;;;;;;;;;5094039;28;20052;-58
2024/03/05 03:50:07;;;;;;;73.35;39.83;;;;;;;;;;5094818;28;20059;-58
2024/03/05 03:52:35;;;;;;;74.05;39.42;;;;;;;;;;5094398;28;20052;-58
2024/03/05 03:55:02;;;;;;;62.92;34.53;;;;;;;;;;5093609;28;20052;-58
2024/03/05 03:57:29;;;;;;;67.13;36.70;;;;;;;;;;5094415;28;20052;-58
2024/03/05 03:59:56;;;;;;;67.63;36.63;;;;;;;;;;5094516;28;20048;-58
2024/03/05 04:02:24;;;;;;;67.10;37.20;;;;;;;;;;5093604;28;20481;-58
2024/03/05 04:04:51;;;;;;;72.60;38.00;;;;;;;;;;5093628;28;20470;-58
2024/03/05 04:07:18;;;;;;;70.10;34.92;;;;;;;;;;5094180;28;20052;-58
2024/03/05 04:09:45;;;;;;;68.35;37.40;;;;;;;;;;5094360;28;20063;-58
2024/03/05 04:12:13;;;;;;;62.60;34.17;;;;;;;;;;5094269;28;20355;-58
2024/03/05 04:14:40;;;;;;;66.15;37.28;;;;;;;;;;5094055;28;20055;-58
2024/03/05 04:17:07;;;;;;;66.28;36.33;;;;;;;;;;5093668;28;20052;-58
2024/03/05 04:19:35;;;;;;;68.72;36.22;;;;;;;;;;5093636;28;20075;-58
2024/03/05 04:22:02;;;;;;;67.82;36.15;;;;;;;;;;5094414;28;20052;-57
2024/03/05 04:24:30;;;;;;;74.68;39.15;;;;;;;;;;5093634;28;20048;-58
2024/03/05 04:27:02;;;;;;;64.45;37.40;;;;;;;;;;5093969;28;20537;-57
2024/03/05 04:29:30;;;;;;;72.20;36.63;;;;;;;;;;5093818;28;20059;-58
2024/03/05 04:32:08;;;;;;;71.20;36.97;;;;;;;;;;5093417;28;20052;-58
2024/03/05 04:34:39;;;;;;;65.22;34.75;;;;;;;;;;5094155;28;20055;-58
2024/03/05 04:37:09;;;;;;;69.93;37.05;;;;;;;;;;5093452;28;20047;-58
2024/03/05 04:39:35;;;;;;;66.88;36.00;;;;;;;;;;5093646;28;20052;-59
2024/03/05 04:42:02;;;;;;;65.70;36.08;;;;;;;;;;5093971;28;20059;-58
2024/03/05 04:44:29;;;;;;;63.95;37.13;;;;;;;;;;5093680;28;20409;-58
2024/03/05 04:46:57;;;;;;;67.35;36.08;;;;;;;;;;5092857;28;20413;-58
2024/03/05 04:49:24;;;;;;;61.08;34.90;;;;;;;;;;5093603;28;20424;-58
2024/03/05 04:51:52;;;;;;;66.20;37.25;;;;;;;;;;5093382;28;20056;-58
2024/03/05 04:54:19;;;;;;;61.08;35.80;;;;;;;;;;5093483;28;20048;-58
2024/03/05 04:56:47;;;;;;;61.90;34.97;;;;;;;;;;5092794;28;20052;-58
2024/03/05 04:59:14;;;;;;;60.13;36.10;;;;;;;;;;5093145;28;20052;-58
2024/03/05 05:01:40;;;;;;;62.67;34.72;;;;;;;;;;5092592;28;20406;-58
2024/03/05 05:04:07;;;;;;;56.65;33.70;;;;;;;;;;5092409;28;20048;-58
2024/03/05 05:06:34;;;;;;;62.40;35.33;;;;;;;;;;5091644;28;20059;-58
2024/03/05 05:09:07;;;;;;;57.38;33.95;;;;;;;;;;5093085;28;20048;-58
2024/03/05 05:11:34;;;;;;;59.22;33.20;;;;;;;;;;5093346;28;20051;-58
2024/03/05 05:14:01;;;;;;;56.95;31.33;;;;;;;;;;5093200;28;20396;-57
2024/03/05 05:16:28;;;;;;;63.13;33.92;;;;;;;;;;5092354;28;20409;-58
2024/03/05 05:18:54;;;;;;;62.10;34.47;;;;;;;;;;5092706;28;20437;-58
2024/03/05 05:21:22;;;;;;;60.58;34.50;;;;;;;;;;5093142;28;20481;-58
2024/03/05 05:23:48;;;;;;;66.90;34.55;;;;;;;;;;5092750;28;20398;-58
2024/03/05 05:26:17;;;;;;;58.35;33.28;;;;;;;;;;5093370;28;20056;-58
2024/03/05 05:28:43;;;;;;;67.97;35.45;;;;;;;;;;5092925;28;20060;-58
2024/03/05 05:31:23;;;;;;;60.55;34.30;;;;;;;;;;5092914;28;20056;-58
2024/03/05 05:33:50;;;;;;;60.55;33.20;;;;;;;;;;5092355;28;20056;-58
2024/03/05 05:36:16;;;;;;;65.88;34.28;;;;;;;;;;5093100;28;20052;-58
2024/03/05 05:38:44;;;;;;;58.67;33.50;;;;;;;;;;5092737;28;20063;-58
2024/03/05 05:41:10;;;;;;;67.32;35.25;;;;;;;;;;5092917;28;20063;-57
2024/03/05 05:43:40;;;;;;;68.47;36.83;;;;;;;;;;5092158;28;20052;-58
2024/03/05 05:46:14;;;;;;;64.55;35.28;;;;;;;;;;5092869;28;20052;-58
2024/03/05 05:48:42;;;;;;;61.80;34.33;;;;;;;;;;5091680;28;20059;-58
2024/03/05 05:51:10;;;;;;;67.50;35.88;;;;;;;;;;5092989;28;20056;-58
2024/03/05 05:53:37;;;;;;;65.28;36.70;;;;;;;;;;5092584;28;20063;-58
2024/03/05 05:56:05;;;;;;;60.53;34.60;;;;;;;;;;5092749;28;20070;-58
2024/03/05 05:58:33;;;;;;;62.70;36.05;;;;;;;;;;5091766;28;20052;-58
2024/03/05 06:01:04;;;;;;;71.32;37.10;;;;;;;;;;5091326;28;20405;-58
2024/03/05 06:03:30;;;;;;;62.88;34.92;;;;;;;;;;5092164;28;20131;-58
2024/03/05 06:05:57;;;;;;;60.33;33.55;;;;;;;;;;5091777;28;20048;-58
2024/03/05 06:08:25;;;;;;;64.97;34.03;;;;;;;;;;5090511;28;20063;-56
2024/03/05 06:10:53;;;;;;;62.50;33.35;;;;;;;;;;5073017;28;20056;-57
2024/03/05 06:13:20;;;;;;;62.15;33.38;;;;;;;;;;5090908;28;20436;-58
2024/03/05 06:15:48;;;;;;;61.67;32.78;;;;;;;;;;5092096;28;20062;-58
2024/03/05 06:18:16;;;;;;;63.40;32.53;;;;;;;;;;5093411;28;20131;-57
2024/03/05 06:20:43;;;;;;;65.82;35.05;;;;;;;;;;5096757;28;20059;-58
2024/03/05 06:23:11;;;;;;;60.85;32.97;;;;;;;;;;5096094;28;20052;-58
2024/03/05 06:25:39;;;;;;;60.25;33.72;;;;;;;;;;5095871;28;20508;-58
2024/03/05 06:28:08;;;;;;;60.15;33.67;;;;;;;;;;5095236;28;20048;-58
2024/03/05 06:30:35;;;;;;;62.42;33.35;;;;;;;;;;5096062;28;20048;-59
2024/03/05 06:33:04;;;;;;;64.32;33.83;;;;;;;;;;5094694;28;20062;-58
2024/03/05 06:35:32;;;;;;;61.33;33.13;;;;;;;;;;5078419;28;20486;-58
2024/03/05 06:38:00;;;;;;;64.38;33.50;;;;;;;;;;5093640;28;20055;-58
2024/03/05 06:40:28;;;;;;;63.58;33.08;;;;;;;;;;5095429;28;20462;-58
2024/03/05 06:43:03;;;;;;;63.92;34.15;;;;;;;;;;5095730;28;20052;-58
2024/03/05 06:45:30;;;;;;;65.38;33.53;;;;;;;;;;5095785;28;20051;-59
2024/03/05 06:47:57;;;;;;;66.03;32.33;;;;;;;;;;5095386;28;20416;-58
2024/03/05 06:50:33;;;;;;;61.25;33.75;;;;;;;;;;5096216;28;20071;-59
2024/03/05 06:58:31;;;;;;;65.85;35.03;;;;;;;;;;5102056;28;20063;-58
2024/03/05 07:00:58;;;;;;;68.80;35.75;;;;;;;;;;5089911;28;20401;-58
2024/03/05 07:03:25;;;;;;;69.40;36.28;;;;;;;;;;5095001;28;20485;-58
2024/03/05 07:05:52;;;;;;;65.43;34.83;;;;;;;;;;5095290;28;20056;-59
2024/03/05 07:08:20;;;;;;;64.28;33.72;;;;;;;;;;5093293;28;20059;-59
2024/03/05 07:10:47;;;;;;;61.22;33.40;;;;;;;;;;5089085;28;20401;-58
2024/03/05 07:13:14;;;;;;;60.47;33.53;;;;;;;;;;5086586;28;20056;-59
2024/03/05 07:15:40;;;;;;;60.05;33.00;;;;;;;;;;5088000;28;20125;-58
2024/03/05 07:18:08;;;;;;;59.33;33.15;;;;;;;;;;5094340;28;20428;-59
2024/03/05 07:20:35;;;;;;;55.17;31.63;;;;;;;;;;5094121;28;20048;-58
2024/03/05 07:23:02;;;;;;;58.40;33.00;;;;;;;;;;5092091;28;20055;-58
2024/03/05 07:25:30;;;;;;;58.97;30.20;;;;;;;;;;5094420;28;20055;-58
2024/03/05 07:27:57;;;;;;;56.78;30.55;;;;;;;;;;5095061;28;20423;-58
2024/03/05 07:30:24;;;;;;;57.63;30.65;;;;;;;;;;5094106;28;20062;-59
2024/03/05 07:32:51;;;;;;;55.67;30.95;;;;;;;;;;5095054;28;20058;-59
2024/03/05 07:35:19;;;;;;;52.08;29.73;;;;;;;;;;5094054;28;20059;-58
2024/03/05 07:37:47;;;;;;;57.10;32.33;;;;;;;;;;5094759;28;20052;-58
2024/03/05 07:40:17;;;;;;;50.10;28.23;;;;;;;;;;5094754;28;20409;-59
2024/03/05 07:42:47;;;;;;;55.30;32.67;;;;;;;;;;5095138;28;20052;-59
2024/03/05 07:45:14;;;;;;;61.90;32.50;;;;;;;;;;5094830;28;20048;-58
2024/03/05 07:47:41;;;;;;;60.95;34.47;;;;;;;;;;5094123;28;20051;-58
2024/03/05 07:50:09;;;;;;;57.35;34.00;;;;;;;;;;5094814;28;20481;-58
2024/03/05 07:52:36;;;;;;;54.78;32.85;;;;;;;;;;5094342;28;20047;-59
2024/03/05 07:55:04;;;;;;;60.05;33.95;;;;;;;;;;5095056;28;20052;-58
2024/03/05 07:57:31;;;;;;;54.78;33.20;;;;;;;;;;5094425;28;20496;-58
2024/03/05 08:00:00;;;;;;;56.58;33.90;;;;;;;;;;5095042;28;20052;-58
2024/03/05 08:02:27;;;;;;;56.47;32.60;;;;;;;;;;5094217;28;20493;-58
2024/03/05 08:04:53;;;;;;;54.88;32.88;;;;;;;;;;5094268;28;20405;-58
2024/03/05 08:07:20;;;;;;;50.20;30.73;;;;;;;;;;5094070;28;20059;-59
2024/03/05 08:09:47;;;;;;;56.42;31.90;;;;;;;;;;5094401;28;20048;-58
2024/03/05 08:12:14;;;;;;;50.90;31.10;;;;;;;;;;5094509;28;20056;-58
2024/03/05 08:14:41;;;;;;;54.50;32.85;;;;;;;;;;5093882;28;20055;-59
2024/03/05 08:17:09;;;;;;;57.60;33.35;;;;;;;;;;5093832;28;20048;-59
2024/03/05 08:19:36;;;;;;;53.33;31.63;;;;;;;;;;5093758;28;20056;-59
2024/03/05 08:22:05;;;;;;;61.47;35.80;;;;;;;;;;5094596;28;20064;-58
2024/03/05 08:24:32;;;;;;;56.33;32.47;;;;;;;;;;5093712;28;20056;-58
2024/03/05 08:26:58;;;;;;;56.33;34.30;;;;;;;;;;5094228;28;20055;-59
2024/03/05 08:29:26;;;;;;;54.78;32.03;;;;;;;;;;5094118;28;20048;-59
2024/03/05 08:31:53;;;;;;;50.33;30.50;;;;;;;;;;5080188;28;20059;-59
2024/03/05 08:34:23;;;;;;;48.03;30.35;;;;;;;;;;5073726;28;20052;-58
2024/03/05 08:36:50;;;;;;;49.05;30.05;;;;;;;;;;5074110;28;20048;-58
2024/03/05 08:39:18;;;;;;;50.13;30.48;;;;;;;;;;5073320;28;20044;-58
2024/03/05 08:41:46;;;;;;;56.20;30.07;;;;;;;;;;5073160;28;20068;-58
2024/03/05 08:44:14;;;;;;;51.53;29.55;;;;;;;;;;5073489;28;20067;-59
2024/03/05 08:46:41;;;;;;;49.58;29.88;;;;;;;;;;5089000;28;20044;-59
2024/03/05 08:49:07;;;;;;;44.33;28.92;;;;;;;;;;5093776;28;20047;-59
2024/03/05 08:51:38;;;;;;;48.42;28.70;;;;;;;;;;5093219;28;20044;-59
2024/03/05 08:54:08;;;;;;;47.13;29.35;;;;;;;;;;5093960;28;20063;-59
2024/03/05 08:56:36;;;;;;;52.78;30.38;;;;;;;;;;5093190;28;20048;-59
2024/03/05 08:59:05;;;;;;;48.63;28.90;;;;;;;;;;5093423;28;20055;-59
2024/03/05 09:01:33;;;;;;;47.58;29.65;;;;;;;;;;5092311;28;20412;-59
2024/03/05 09:04:00;;;;;;;47.83;29.38;;;;;;;;;;5093169;28;20051;-59
2024/03/05 09:06:28;;;;;;;47.38;29.35;;;;;;;;;;5093773;28;20063;-59
2024/03/05 09:08:56;;;;;;;45.72;29.45;;;;;;;;;;5093297;28;20059;-59
2024/03/05 09:11:23;;;;;;;44.00;27.20;;;;;;;;;;5092891;28;20048;-59
2024/03/05 09:13:50;;;;;;;44.95;28.67;;;;;;;;;;5093396;28;20408;-59
2024/03/05 09:16:17;;;;;;;45.10;29.05;;;;;;;;;;5092788;28;20473;-59
2024/03/05 09:18:44;;;;;;;41.50;27.08;;;;;;;;;;5092891;28;20516;-58
2024/03/05 09:21:11;;;;;;;44.30;27.60;;;;;;;;;;5093658;28;20075;-59
2024/03/05 09:23:38;;;;;;;44.92;28.02;;;;;;;;;;5093048;28;20123;-59
2024/03/05 09:26:07;;;;;;;42.75;27.52;;;;;;;;;;5093159;28;20477;-59
2024/03/05 09:28:34;;;;;;;43.97;28.52;;;;;;;;;;5092822;28;20056;-59
2024/03/05 09:31:01;;;;;;;44.50;29.15;;;;;;;;;;5092525;28;20047;-59
2024/03/05 09:33:29;;;;;;;48.95;30.10;;;;;;;;;;5093215;28;20063;-59
2024/03/05 09:35:56;;;;;;;50.28;29.25;;;;;;;;;;5093350;28;20052;-59
2024/03/05 09:38:22;;;;;;;44.22;27.60;;;;;;;;;;5093004;28;20051;-58
2024/03/05 09:40:52;;;;;;;43.90;28.92;;;;;;;;;;5093021;28;20055;-59
2024/03/05 09:43:22;;;;;;;40.78;27.30;;;;;;;;;;5092580;28;20484;-59
2024/03/05 09:45:51;;;;;;;42.78;28.25;;;;;;;;;;5101324;28;20481;-58
2024/03/05 09:48:19;;;;;;;41.83;28.80;;;;;;;;;;5113029;28;20420;-56
2024/03/05 09:50:47;;;;;;;45.55;30.08;;;;;;;;;;5112977;28;20484;-57
2024/03/05 09:53:14;;;;;;;45.63;29.55;;;;;;;;;;5111963;28;20055;-57
2024/03/05 09:55:41;;;;;;;43.30;28.45;;;;;;;;;;5095885;28;20059;-57
2024/03/05 09:58:10;;;;;;;40.47;27.45;;;;;;;;;;5091781;28;20382;-57
2024/03/05 10:00:38;;;;;;;42.67;28.33;;;;;;;;;;5091679;28;20056;-57
2024/03/05 10:03:06;;;;;;;39.70;27.80;;;;;;;;;;5091961;28;20493;-57
2024/03/05 10:05:33;;;;;;;39.40;26.83;;;;;;;;;;5091588;28;20048;-57
2024/03/05 10:08:00;;;;;;;39.75;27.95;;;;;;;;;;5091989;28;20058;-57
2024/03/05 10:10:31;;;;;;;41.75;28.35;;;;;;;;;;5092239;28;20063;-57
2024/03/05 10:12:58;;;;;;;39.72;26.00;;;;;;;;;;5092653;28;20063;-57
2024/03/05 10:15:25;;;;;;;33.58;25.35;;;;;;;;;;5091546;28;20051;-57
2024/03/05 10:17:54;;;;;;;36.20;25.77;;;;;;;;;;5091711;28;20051;-57
2024/03/05 10:20:27;;;;;;;34.42;25.02;;;;;;;;;;5092503;28;20055;-57
2024/03/05 10:22:54;;;;;;;36.50;25.75;;;;;;;;;;5091697;28;20143;-58
2024/03/05 10:25:22;;;;;;;39.20;26.05;;;;;;;;;;5092053;28;20056;-58
2024/03/05 10:27:49;;;;;;;38.75;26.00;;;;;;;;;;5091929;28;20048;-58
2024/03/05 10:30:22;;;;;;;40.10;26.92;;;;;;;;;;5091586;28;20048;-57
2024/03/05 10:32:54;;;;;;;38.90;26.38;;;;;;;;;;5092136;28;20059;-57
2024/03/05 10:35:21;;;;;;;41.83;26.67;;;;;;;;;;5092249;28;20434;-57
2024/03/05 10:37:56;;;;;;;36.15;25.33;;;;;;;;;;5091821;28;20044;-57
2024/03/05 10:40:23;;;;;;;42.88;28.35;;;;;;;;;;5092358;28;20055;-58
2024/03/05 10:42:51;;;;;;;41.72;28.10;;;;;;;;;;5092249;28;20051;-57
2024/03/05 10:45:18;;;;;;;41.55;27.00;;;;;;;;;;5091424;28;20052;-57
2024/03/05 10:47:46;;;;;;;42.35;27.92;;;;;;;;;;5092042;28;20052;-57
2024/03/05 10:50:16;;;;;;;40.25;26.33;;;;;;;;;;5092094;28;20052;-57
2024/03/05 10:52:44;;;;;;;42.10;26.42;;;;;;;;;;5092121;28;20493;-57
2024/03/05 10:55:11;;;;;;;45.50;28.75;;;;;;;;;;5092303;28;20052;-57
2024/03/05 10:58:08;;;;;;;40.55;27.50;;;;;;;;;;5092221;28;20052;-57
2024/03/05 11:00:26;;;;;;;45.70;26.80;;;;;;;;;;5091060;28;20067;-57
2024/03/05 11:02:53;;;;;;;48.95;30.05;;;;;;;;;;5092150;28;20059;-57
2024/03/05 11:05:22;;;;;;;42.13;27.00;;;;;;;;;;5095307;28;20063;-57
2024/03/05 11:07:49;;;;;;;47.30;29.10;;;;;;;;;;5095162;28;20044;-57
2024/03/05 11:10:16;;;;;;;46.25;28.25;;;;;;;;;;5095490;28;20056;-61
2024/03/05 11:12:43;;;;;;;46.60;30.35;;;;;;;;;;5095309;28;20488;-57
2024/03/05 11:15:12;;;;;;;42.92;27.58;;;;;;;;;;5094787;28;20044;-58
2024/03/05 11:17:39;;;;;;;44.00;28.87;;;;;;;;;;5095121;28;20586;-58
2024/03/05 11:20:11;;;;;;;45.15;27.45;;;;;;;;;;5095308;28;20059;-58
2024/03/05 11:22:44;;;;;;;39.70;26.13;;;;;;;;;;5095355;28;20052;-58
2024/03/05 11:25:29;;;;;;;42.75;25.60;;;;;;;;;;5095054;28;20079;-58
2024/03/05 11:27:57;;;;;;;48.53;34.03;;;;;;;;;;5094492;28;20106;-58
2024/03/05 11:30:24;;;;;;;42.50;26.38;;;;;;;;;;5094468;28;20052;-58
2024/03/05 11:32:52;;;;;;;43.70;27.63;;;;;;;;;;5094782;28;20074;-58
2024/03/05 11:35:19;;;;;;;47.47;27.80;;;;;;;;;;5094985;28;20052;-58
2024/03/05 11:37:48;;;;;;;41.20;26.23;;;;;;;;;;5095132;28;20052;-57
2024/03/05 11:40:16;;;;;;;45.13;26.60;;;;;;;;;;5095088;28;20048;-58
2024/03/05 11:42:45;;;;;;;42.50;26.85;;;;;;;;;;5094511;28;20482;-58
2024/03/05 11:45:14;;;;;;;44.25;28.60;;;;;;;;;;5094333;28;20051;-58
2024/03/05 11:47:41;;;;;;;;;;;;;;;;;;5095320;28;20051;-58
2024/03/05 11:50:08;;;;;;;45.85;27.95;;;;;;;;;;5095159;28;19943;-58
2024/03/05 11:52:36;;;;;;;47.70;29.67;;;;;;;;;;5094994;28;20071;-58
2024/03/05 11:55:05;;;;;;;48.25;29.38;;;;;;;;;;5094702;28;20055;-59
2024/03/05 11:57:32;;;;;;;47.55;28.92;;;;;;;;;;5094483;28;20052;-58
2024/03/05 11:59:59;;;;;;;45.83;29.48;;;;;;;;;;5094539;28;20056;-58
2024/03/05 12:02:26;;;;;;;48.47;29.55;;;;;;;;;;5094467;28;20076;-58
2024/03/05 12:04:53;;;;;;;45.35;29.20;;;;;;;;;;5094890;28;20393;-58
2024/03/05 12:07:20;;;;;;;46.95;28.35;;;;;;;;;;5094699;28;20059;-58
2024/03/05 12:09:47;;;;;;;47.00;29.20;;;;;;;;;;5094617;28;20055;-57
2024/03/05 12:12:16;;;;;;;49.78;29.63;;;;;;;;;;5094141;28;20059;-57
2024/03/05 12:14:53;;;;;;;45.10;28.17;;;;;;;;;;5093192;28;20048;-58
2024/03/05 12:17:20;;;;;;;52.20;31.02;;;;;;;;;;5093370;28;20059;-57
2024/03/05 12:19:56;;;;;;;46.38;29.65;;;;;;;;;;5094097;28;20059;-57
2024/03/05 12:22:23;;;;;;;49.75;30.13;;;;;;;;;;5094044;28;20056;-57
2024/03/05 12:24:49;;;;;;;51.05;31.90;;;;;;;;;;5094345;28;20060;-57
2024/03/05 12:27:17;;;;;;;51.00;30.65;;;;;;;;;;5094345;28;20413;-57
2024/03/05 12:29:45;;;;;;;49.08;30.38;;;;;;;;;;5093620;28;20059;-57
2024/03/05 12:32:12;;;;;;;54.00;30.17;;;;;;;;;;5093734;28;20059;-57
2024/03/05 12:34:40;;;;;;;50.22;31.60;;;;;;;;;;5093784;28;20055;-59
2024/03/05 12:37:07;;;;;;;53.13;30.75;;;;;;;;;;5094085;28;20052;-59
2024/03/05 12:39:35;;;;;;;53.38;32.25;;;;;;;;;;5093948;28;20470;-58
2024/03/05 12:42:03;;;;;;;53.20;32.13;;;;;;;;;;5093371;28;20413;-58
2024/03/05 12:44:31;;;;;;;52.35;32.35;;;;;;;;;;5092953;28;20056;-58
2024/03/05 12:47:05;;;;;;;51.08;32.55;;;;;;;;;;5093218;28;20052;-58
2024/03/05 12:49:32;;;;;;;54.70;33.75;;;;;;;;;;5093851;28;20059;-58
2024/03/05 12:52:03;;;;;;;58.10;36.58;;;;;;;;;;5093396;28;20075;-58
2024/03/05 12:54:29;;;;;;;54.58;34.20;;;;;;;;;;5093359;28;20048;-58
2024/03/05 12:56:57;;;;;;;57.65;34.97;;;;;;;;;;5093197;28;20067;-59
2024/03/05 12:59:23;;;;;;;58.88;35.05;;;;;;;;;;5093245;28;20056;-58
2024/03/05 13:01:53;;;;;;;64.03;37.03;;;;;;;;;;5092963;28;20051;-58
2024/03/05 13:04:20;;;;;;;;;;;;;;;;;;5093580;28;20063;-59
2024/03/05 13:06:47;;;;;;;56.65;34.50;;;;;;;;;;5093245;28;19931;-58
2024/03/05 13:09:17;;;;;;;56.55;34.42;;;;;;;;;;5092879;28;20051;-58
2024/03/05 13:11:44;;;;;;;60.38;34.42;;;;;;;;;;5093260;28;20412;-58
2024/03/05 13:14:13;;;;;;;57.63;35.83;;;;;;;;;;5093290;28;20048;-58
2024/03/05 13:16:40;;;;;;;56.00;34.25;;;;;;;;;;5092288;28;20059;-58
2024/03/05 13:19:10;;;;;;;56.80;33.78;;;;;;;;;;5092699;28;20056;-58
2024/03/05 13:21:37;;;;;;;56.17;32.67;;;;;;;;;;5093266;28;20055;-59
2024/03/05 13:24:04;;;;;;;56.67;34.95;;;;;;;;;;5092709;28;20052;-58
2024/03/05 13:26:33;;;;;;;51.70;33.90;;;;;;;;;;5093024;28;20068;-59
2024/03/05 13:29:00;;;;;;;51.92;32.10;;;;;;;;;;5093240;28;20378;-59
2024/03/05 13:31:27;;;;;;;52.90;31.90;;;;;;;;;;5093405;28;20060;-58
2024/03/05 13:33:54;;;;;;;48.20;31.70;;;;;;;;;;5092559;28;20055;-58
2024/03/05 13:36:23;;;;;;;52.90;33.00;;;;;;;;;;5093195;28;20051;-58
2024/03/05 13:38:50;;;;;;;46.60;29.88;;;;;;;;;;5093024;28;20043;-58
2024/03/05 13:41:18;;;;;;;49.58;31.05;;;;;;;;;;5093169;28;20052;-57
2024/03/05 13:43:45;;;;;;;50.00;29.98;;;;;;;;;;5092680;28;20409;-57
2024/03/05 13:46:12;;;;;;;49.40;31.45;;;;;;;;;;5092186;28;20056;-57
2024/03/05 13:48:39;;;;;;;51.35;31.38;;;;;;;;;;5091801;28;20051;-57
2024/03/05 13:51:08;;;;;;;46.40;30.15;;;;;;;;;;5092810;28;20052;-57
2024/03/05 13:53:36;;;;;;;51.30;32.10;;;;;;;;;;5092669;28;20059;-57
2024/03/05 13:56:04;;;;;;;46.25;29.48;;;;;;;;;;5092749;28;20048;-57
2024/03/05 13:58:31;;;;;;;45.00;30.08;;;;;;;;;;5092675;28;20378;-57
2024/03/05 14:01:00;;;;;;;43.85;29.75;;;;;;;;;;5092740;28;20496;-58
2024/03/05 14:03:26;;;;;;;45.28;28.85;;;;;;;;;;5091532;28;20060;-58
2024/03/05 14:05:54;;;;;;;41.45;26.13;;;;;;;;;;5092636;28;20059;-58
2024/03/05 14:08:20;;;;;;;43.90;27.92;;;;;;;;;;5092415;28;20048;-58
2024/03/05 14:10:50;;;;;;;44.03;28.95;;;;;;;;;;5092555;28;20056;-58
2024/03/05 14:13:20;;;;;;;41.45;27.95;;;;;;;;;;5092579;28;20056;-57
2024/03/05 14:15:49;;;;;;;41.22;25.85;;;;;;;;;;5092268;28;20509;-58
2024/03/05 14:18:16;;;;;;;36.75;25.52;;;;;;;;;;5091267;28;20047;-57
2024/03/05 14:20:43;;;;;;;41.28;25.80;;;;;;;;;;5092403;28;20059;-57
2024/03/05 14:23:11;;;;;;;33.25;23.45;;;;;;;;;;5092347;28;20052;-57
2024/03/05 14:25:38;;;;;;;34.55;24.05;;;;;;;;;;5092218;28;20051;-57
2024/03/05 14:28:06;;;;;;;34.08;22.45;;;;;;;;;;5092615;28;20401;-57